createdAt,value
2023-01-08T00:00:52.192Z,314.70
2023-01-08T00:01:52.077Z,319.10
2023-01-08T00:02:52.208Z,323.70
2023-01-08T00:03:52.145Z,317.10
2023-01-08T00:04:52.029Z,311.30
2023-01-08T00:05:52.032Z,306.10
2023-01-08T00:06:52.018Z,247.50
2023-01-08T00:07:52.001Z,262.80
2023-01-08T00:08:52.045Z,240.30
2023-01-08T00:09:51.964Z,229.00
2023-01-08T00:10:51.940Z,234.90
2023-01-08T00:11:51.943Z,239.80
2023-01-08T00:12:51.931Z,247.90
2023-01-08T00:13:51.916Z,246.90
2023-01-08T00:14:51.989Z,239.70
2023-01-08T00:15:51.906Z,237.50
2023-01-08T00:16:51.995Z,247.70
2023-01-08T00:17:51.884Z,237.10
2023-01-08T00:18:51.876Z,232.20
2023-01-08T00:19:51.889Z,227.20
2023-01-08T00:20:51.833Z,225.50
2023-01-08T00:21:51.829Z,214.40
2023-01-08T00:22:51.799Z,221.40
2023-01-08T00:23:51.803Z,211.60
2023-01-08T00:24:51.829Z,206.70
2023-01-08T00:25:51.784Z,207.10
2023-01-08T00:26:51.786Z,203.30
2023-01-08T00:27:51.766Z,189.20
2023-01-08T00:28:51.755Z,191.50
2023-01-08T00:29:51.768Z,195.20
2023-01-08T00:30:51.752Z,188.00
2023-01-08T00:31:51.759Z,195.30
2023-01-08T00:32:51.716Z,191.20
2023-01-08T00:33:51.736Z,192.10
2023-01-08T00:34:51.739Z,201.70
2023-01-08T00:35:51.768Z,191.10
2023-01-08T00:36:51.643Z,186.50
2023-01-08T00:37:51.686Z,180.00
2023-01-08T00:38:51.635Z,187.10
2023-01-08T00:39:51.641Z,190.00
2023-01-08T00:40:51.607Z,191.40
2023-01-08T00:41:51.585Z,196.80
2023-01-08T00:42:51.616Z,191.50
2023-01-08T00:43:51.569Z,180.30
2023-01-08T00:44:51.601Z,182.00
2023-01-08T00:45:51.667Z,178.40
2023-01-08T00:46:51.562Z,215.90
2023-01-08T00:47:51.529Z,294.60
2023-01-08T00:48:51.513Z,251.70
2023-01-08T00:49:51.553Z,243.20
2023-01-08T00:50:51.495Z,197.70
2023-01-08T00:51:51.496Z,279.70
2023-01-08T00:52:51.488Z,300.40
2023-01-08T00:53:51.452Z,297.50
2023-01-08T00:54:51.484Z,225.30
2023-01-08T00:55:51.441Z,285.00
2023-01-08T00:56:51.435Z,312.80
2023-01-08T00:57:51.415Z,261.60
2023-01-08T00:58:51.418Z,215.20
2023-01-08T00:59:51.449Z,351.30
2023-01-08T01:00:51.380Z,314.10
2023-01-08T01:01:51.526Z,339.30
2023-01-08T01:02:51.374Z,348.00
2023-01-08T01:03:51.372Z,342.80
2023-01-08T01:04:51.369Z,342.40
2023-01-08T01:05:51.347Z,349.80
2023-01-08T01:06:51.318Z,371.20
2023-01-08T01:07:51.327Z,355.30
2023-01-08T01:08:51.280Z,373.30
2023-01-08T01:09:51.312Z,372.30
2023-01-08T01:10:51.252Z,361.10
2023-01-08T01:11:51.239Z,366.90
2023-01-08T01:12:51.279Z,350.50
2023-01-08T01:13:51.244Z,347.10
2023-01-08T01:14:51.247Z,358.90
2023-01-08T01:15:51.210Z,399.00
2023-01-08T01:16:51.295Z,337.40
2023-01-08T01:17:51.213Z,331.70
2023-01-08T01:18:51.169Z,336.80
2023-01-08T01:19:51.219Z,362.10
2023-01-08T01:20:51.147Z,334.10
2023-01-08T01:21:51.138Z,314.10
2023-01-08T01:22:51.142Z,338.70
2023-01-08T01:23:51.109Z,328.60
2023-01-08T01:24:51.146Z,330.40
2023-01-08T01:25:51.100Z,308.30
2023-01-08T01:26:51.088Z,322.50
2023-01-08T01:27:51.080Z,310.10
2023-01-08T01:28:51.079Z,318.80
2023-01-08T01:29:51.089Z,328.50
2023-01-08T01:30:51.060Z,328.40
2023-01-08T01:31:51.040Z,329.40
2023-01-08T01:32:51.007Z,336.10
2023-01-08T01:33:51.001Z,314.10
2023-01-08T01:34:51.030Z,305.50
2023-01-08T01:35:50.966Z,317.70
2023-01-08T01:36:50.974Z,319.50
2023-01-08T01:37:50.957Z,313.20
2023-01-08T01:38:50.934Z,310.70
2023-01-08T01:39:50.978Z,306.80
2023-01-08T01:40:50.908Z,306.40
2023-01-08T01:41:50.917Z,316.80
2023-01-08T01:42:50.906Z,305.50
2023-01-08T01:43:50.903Z,295.50
2023-01-08T01:44:50.923Z,305.70
2023-01-08T01:45:50.942Z,319.10
2023-01-08T01:46:50.858Z,297.60
2023-01-08T01:47:50.832Z,304.50
2023-01-08T01:48:50.869Z,301.30
2023-01-08T01:49:50.897Z,306.30
2023-01-08T01:50:50.847Z,310.20
2023-01-08T01:51:50.797Z,322.10
2023-01-08T01:52:50.773Z,315.40
2023-01-08T01:53:50.783Z,310.60
2023-01-08T01:54:50.814Z,305.50
2023-01-08T01:55:50.762Z,301.90
2023-01-08T01:56:50.730Z,298.80
2023-01-08T01:57:50.750Z,295.20
2023-01-08T01:58:50.707Z,302.80
2023-01-08T01:59:50.753Z,305.60
2023-01-08T02:00:50.697Z,293.00
2023-01-08T02:01:50.715Z,291.00
2023-01-08T02:02:50.673Z,292.00
2023-01-08T02:03:50.693Z,293.90
2023-01-08T02:04:50.689Z,281.50
2023-01-08T02:05:50.639Z,306.10
2023-01-08T02:06:50.605Z,306.80
2023-01-08T02:07:50.613Z,305.10
2023-01-08T02:08:50.588Z,294.30
2023-01-08T02:09:50.614Z,293.10
2023-01-08T02:10:50.563Z,299.60
2023-01-08T02:11:50.538Z,301.90
2023-01-08T02:12:50.558Z,305.20
2023-01-08T02:13:50.544Z,301.60
2023-01-08T02:14:50.550Z,301.70
2023-01-08T02:15:50.522Z,296.40
2023-01-08T02:16:50.599Z,300.70
2023-01-08T02:17:50.489Z,303.30
2023-01-08T02:18:50.509Z,304.50
2023-01-08T02:19:50.525Z,301.10
2023-01-08T02:20:50.451Z,298.50
2023-01-08T02:21:50.474Z,298.70
2023-01-08T02:22:50.438Z,294.20
2023-01-08T02:23:50.443Z,307.50
2023-01-08T02:24:50.466Z,298.40
2023-01-08T02:25:50.410Z,279.80
2023-01-08T02:26:50.401Z,263.50
2023-01-08T02:27:50.381Z,272.70
2023-01-08T02:28:50.381Z,309.70
2023-01-08T02:29:50.405Z,316.80
2023-01-08T02:30:50.391Z,314.60
2023-01-08T02:31:50.335Z,347.80
2023-01-08T02:32:50.324Z,325.20
2023-01-08T02:33:50.306Z,323.20
2023-01-08T02:34:50.325Z,330.10
2023-01-08T02:35:50.320Z,334.20
2023-01-08T02:36:50.266Z,330.60
2023-01-08T02:37:50.241Z,335.50
2023-01-08T02:38:50.246Z,350.90
2023-01-08T02:39:50.264Z,309.10
2023-01-08T02:40:50.208Z,316.80
2023-01-08T02:41:50.227Z,327.60
2023-01-08T02:42:50.221Z,337.90
2023-01-08T02:43:50.192Z,318.60
2023-01-08T02:44:50.218Z,317.30
2023-01-08T02:45:50.239Z,304.30
2023-01-08T02:46:50.178Z,363.90
2023-01-08T02:47:50.143Z,315.60
2023-01-08T02:48:50.161Z,346.40
2023-01-08T02:49:50.194Z,321.60
2023-01-08T02:50:50.112Z,344.70
2023-01-08T02:51:50.097Z,326.90
2023-01-08T02:52:50.089Z,319.50
2023-01-08T02:53:50.099Z,363.90
2023-01-08T02:54:50.119Z,319.80
2023-01-08T02:55:50.071Z,304.80
2023-01-08T02:56:50.050Z,323.30
2023-01-08T02:57:50.061Z,292.80
2023-01-08T02:58:50.030Z,379.70
2023-01-08T02:59:50.052Z,283.00
2023-01-08T03:00:50.026Z,275.80
2023-01-08T03:01:50.118Z,275.00
2023-01-08T03:02:50.737Z,286.20
2023-01-08T03:03:49.982Z,270.60
2023-01-08T03:04:49.981Z,279.50
2023-01-08T03:05:49.966Z,282.20
2023-01-08T03:06:49.946Z,302.30
2023-01-08T03:07:49.944Z,300.70
2023-01-08T03:08:49.899Z,312.30
2023-01-08T03:09:49.921Z,304.30
2023-01-08T03:10:49.885Z,289.80
2023-01-08T03:11:49.880Z,395.40
2023-01-08T03:12:49.872Z,273.70
2023-01-08T03:13:49.881Z,268.80
2023-01-08T03:14:49.904Z,273.40
2023-01-08T03:15:49.876Z,306.20
2023-01-08T03:16:49.898Z,372.80
2023-01-08T03:17:49.829Z,296.90
2023-01-08T03:18:49.818Z,284.00
2023-01-08T03:19:49.821Z,275.80
2023-01-08T03:20:49.841Z,287.80
2023-01-08T03:21:49.780Z,299.50
2023-01-08T03:22:49.758Z,335.80
2023-01-08T03:23:49.757Z,335.60
2023-01-08T03:24:49.749Z,339.10
2023-01-08T03:25:49.751Z,343.00
2023-01-08T03:26:49.732Z,365.30
2023-01-08T03:27:49.712Z,296.00
2023-01-08T03:28:49.691Z,311.00
2023-01-08T03:29:49.703Z,295.70
2023-01-08T03:30:49.788Z,302.70
2023-01-08T03:31:49.691Z,416.70
2023-01-08T03:32:49.652Z,263.90
2023-01-08T03:33:49.667Z,276.30
2023-01-08T03:34:49.649Z,326.20
2023-01-08T03:35:49.659Z,279.50
2023-01-08T03:36:49.607Z,265.90
2023-01-08T03:37:49.596Z,286.90
2023-01-08T03:38:49.585Z,264.00
2023-01-08T03:39:49.561Z,272.50
2023-01-08T03:40:49.584Z,276.00
2023-01-08T03:41:49.546Z,291.80
2023-01-08T03:42:49.553Z,293.10
2023-01-08T03:43:49.553Z,268.80
2023-01-08T03:44:49.539Z,254.10
2023-01-08T03:45:49.613Z,267.00
2023-01-08T03:46:49.495Z,264.10
2023-01-08T03:47:49.514Z,291.20
2023-01-08T03:48:49.487Z,276.70
2023-01-08T03:49:49.473Z,273.50
2023-01-08T03:50:49.495Z,297.10
2023-01-08T03:51:49.443Z,287.10
2023-01-08T03:52:49.427Z,291.30
2023-01-08T03:53:49.395Z,273.10
2023-01-08T03:54:49.417Z,273.30
2023-01-08T03:55:49.432Z,254.30
2023-01-08T03:56:49.395Z,256.00
2023-01-08T03:57:49.379Z,255.40
2023-01-08T03:58:49.386Z,273.30
2023-01-08T03:59:49.350Z,273.00
2023-01-08T04:00:49.373Z,281.00
2023-01-08T04:01:49.439Z,265.40
2023-01-08T04:02:49.315Z,248.40
2023-01-08T04:03:49.308Z,231.50
2023-01-08T04:04:49.286Z,228.40
2023-01-08T04:05:49.323Z,259.40
2023-01-08T04:06:49.301Z,271.00
2023-01-08T04:07:49.245Z,276.40
2023-01-08T04:08:49.251Z,264.20
2023-01-08T04:09:49.220Z,253.40
2023-01-08T04:10:49.247Z,250.40
2023-01-08T04:11:49.209Z,237.80
2023-01-08T04:12:49.187Z,218.30
2023-01-08T04:13:49.197Z,206.20
2023-01-08T04:14:49.204Z,204.90
2023-01-08T04:15:49.241Z,198.90
2023-01-08T04:16:49.159Z,177.40
2023-01-08T04:17:49.165Z,184.50
2023-01-08T04:18:49.132Z,174.60
2023-01-08T04:19:49.146Z,174.30
2023-01-08T04:20:49.180Z,165.90
2023-01-08T04:21:49.091Z,180.60
2023-01-08T04:22:49.075Z,179.00
2023-01-08T04:23:49.093Z,184.60
2023-01-08T04:24:49.072Z,180.30
2023-01-08T04:25:49.084Z,180.10
2023-01-08T04:26:49.053Z,187.80
2023-01-08T04:27:49.026Z,153.50
2023-01-08T04:28:49.026Z,215.60
2023-01-08T04:29:49.005Z,202.40
2023-01-08T04:30:49.061Z,186.70
2023-01-08T04:31:48.997Z,172.70
2023-01-08T04:32:48.973Z,142.20
2023-01-08T04:33:48.978Z,198.80
2023-01-08T04:34:48.950Z,139.50
2023-01-08T04:35:48.987Z,181.00
2023-01-08T04:36:48.928Z,142.10
2023-01-08T04:37:48.923Z,132.70
2023-01-08T04:38:48.919Z,144.30
2023-01-08T04:39:48.886Z,138.60
2023-01-08T04:40:48.918Z,173.30
2023-01-08T04:41:48.856Z,128.70
2023-01-08T04:42:48.854Z,183.40
2023-01-08T04:43:48.850Z,130.30
2023-01-08T04:44:48.840Z,176.50
2023-01-08T04:45:48.862Z,110.70
2023-01-08T04:46:48.812Z,126.70
2023-01-08T04:47:48.804Z,156.80
2023-01-08T04:48:48.810Z,163.00
2023-01-08T04:49:48.791Z,131.90
2023-01-08T04:50:48.825Z,194.60
2023-01-08T04:51:48.776Z,100.70
2023-01-08T04:52:48.763Z,111.60
2023-01-08T04:53:48.724Z,94.40
2023-01-08T04:54:48.727Z,153.30
2023-01-08T04:55:48.753Z,186.40
2023-01-08T04:56:48.701Z,133.90
2023-01-08T04:57:48.683Z,121.70
2023-01-08T04:58:48.704Z,152.60
2023-01-08T04:59:48.669Z,113.20
2023-01-08T05:00:48.697Z,197.70
2023-01-08T05:01:48.731Z,179.80
2023-01-08T05:02:48.789Z,170.90
2023-01-08T05:03:48.620Z,225.40
2023-01-08T05:04:48.604Z,137.50
2023-01-08T05:05:50.057Z,197.00
2023-01-08T05:06:48.598Z,159.80
2023-01-08T05:07:48.567Z,110.40
2023-01-08T05:08:48.555Z,94.90
2023-01-08T05:09:48.656Z,125.50
2023-01-08T05:10:48.567Z,142.80
2023-01-08T05:11:48.531Z,92.80
2023-01-08T05:12:48.512Z,84.90
2023-01-08T05:13:48.493Z,94.40
2023-01-08T05:14:48.528Z,96.80
2023-01-08T05:15:48.535Z,101.30
2023-01-08T05:16:48.462Z,92.20
2023-01-08T05:17:48.459Z,85.20
2023-01-08T05:18:48.441Z,98.10
2023-01-08T05:19:48.455Z,86.30
2023-01-08T05:20:48.471Z,135.20
2023-01-08T05:21:48.410Z,106.40
2023-01-08T05:22:48.427Z,85.70
2023-01-08T05:23:48.425Z,115.30
2023-01-08T05:24:48.393Z,124.10
2023-01-08T05:25:48.406Z,180.90
2023-01-08T05:26:48.372Z,199.80
2023-01-08T05:27:48.340Z,231.90
2023-01-08T05:28:48.346Z,188.80
2023-01-08T05:29:48.330Z,62.00
2023-01-08T05:30:48.399Z,89.20
2023-01-08T05:31:48.318Z,177.20
2023-01-08T05:32:48.290Z,104.70
2023-01-08T05:33:48.299Z,205.40
2023-01-08T05:34:48.283Z,184.00
2023-01-08T05:35:48.299Z,187.60
2023-01-08T05:36:48.257Z,193.70
2023-01-08T05:37:48.253Z,181.50
2023-01-08T05:38:48.293Z,171.20
2023-01-08T05:39:48.212Z,176.70
2023-01-08T05:40:48.255Z,175.40
2023-01-08T05:41:48.177Z,169.80
2023-01-08T05:42:48.178Z,163.40
2023-01-08T05:43:48.145Z,162.10
2023-01-08T05:44:48.209Z,161.90
2023-01-08T05:45:48.177Z,163.50
2023-01-08T05:46:48.143Z,184.00
2023-01-08T05:47:48.117Z,152.20
2023-01-08T05:48:48.122Z,157.70
2023-01-08T05:49:48.089Z,165.60
2023-01-08T05:50:48.132Z,223.10
2023-01-08T05:51:48.076Z,163.40
2023-01-08T05:52:48.087Z,171.90
2023-01-08T05:53:48.053Z,174.20
2023-01-08T05:54:48.053Z,214.70
2023-01-08T05:55:48.091Z,196.50
2023-01-08T05:56:48.027Z,225.50
2023-01-08T05:57:47.994Z,248.50
2023-01-08T05:58:48.023Z,283.50
2023-01-08T05:59:47.994Z,324.30
2023-01-08T06:00:48.020Z,296.60
2023-01-08T06:01:48.049Z,297.30
2023-01-08T06:02:48.164Z,356.60
2023-01-08T06:03:47.955Z,301.80
2023-01-08T06:04:47.931Z,293.60
2023-01-08T06:05:47.942Z,303.10
2023-01-08T06:06:47.916Z,343.20
2023-01-08T06:07:47.909Z,332.40
2023-01-08T06:08:47.900Z,317.60
2023-01-08T06:09:47.863Z,424.70
2023-01-08T06:10:47.901Z,373.10
2023-01-08T06:11:47.848Z,265.50
2023-01-08T06:12:47.843Z,253.30
2023-01-08T06:13:47.809Z,286.30
2023-01-08T06:14:47.826Z,300.40
2023-01-08T06:15:47.894Z,310.10
2023-01-08T06:16:47.795Z,311.60
2023-01-08T06:17:47.783Z,252.20
2023-01-08T06:18:47.768Z,301.40
2023-01-08T06:19:47.767Z,251.00
2023-01-08T06:20:47.793Z,255.00
2023-01-08T06:21:47.765Z,304.80
2023-01-08T06:22:47.753Z,237.60
2023-01-08T06:23:47.732Z,245.70
2023-01-08T06:24:47.714Z,260.30
2023-01-08T06:25:47.741Z,230.00
2023-01-08T06:26:47.715Z,265.90
2023-01-08T06:27:47.666Z,257.70
2023-01-08T06:28:47.666Z,260.80
2023-01-08T06:29:47.649Z,252.40
2023-01-08T06:30:47.657Z,251.70
2023-01-08T06:31:47.676Z,252.70
2023-01-08T06:32:47.649Z,290.70
2023-01-08T06:33:47.608Z,215.40
2023-01-08T06:34:47.663Z,234.00
2023-01-08T06:35:47.590Z,232.00
2023-01-08T06:36:47.610Z,209.80
2023-01-08T06:37:47.559Z,198.30
2023-01-08T06:38:47.553Z,201.60
2023-01-08T06:39:47.551Z,204.50
2023-01-08T06:40:47.534Z,198.30
2023-01-08T06:41:47.549Z,193.40
2023-01-08T06:42:47.528Z,200.70
2023-01-08T06:43:47.487Z,200.90
2023-01-08T06:44:47.475Z,213.70
2023-01-08T06:45:47.468Z,203.80
2023-01-08T06:46:47.611Z,206.90
2023-01-08T06:47:47.443Z,198.10
2023-01-08T06:48:47.466Z,190.30
2023-01-08T06:49:47.545Z,198.50
2023-01-08T06:50:47.426Z,187.70
2023-01-08T06:51:47.437Z,191.70
2023-01-08T06:52:47.402Z,187.40
2023-01-08T06:53:47.401Z,192.40
2023-01-08T06:54:47.474Z,181.20
2023-01-08T06:55:47.366Z,185.30
2023-01-08T06:56:53.614Z,185.10
2023-01-08T06:57:48.324Z,193.80
2023-01-08T06:58:47.342Z,185.00
2023-01-08T06:59:47.294Z,155.80
2023-01-08T07:00:47.329Z,169.90
2023-01-08T07:01:47.448Z,144.90
2023-01-08T07:02:47.357Z,106.80
2023-01-08T07:03:47.268Z,146.70
2023-01-08T07:04:47.340Z,94.60
2023-01-08T07:05:47.263Z,119.70
2023-01-08T07:06:47.285Z,161.60
2023-01-08T07:07:47.222Z,143.90
2023-01-08T07:08:47.221Z,221.40
2023-01-08T07:09:47.241Z,152.00
2023-01-08T07:10:47.191Z,101.60
2023-01-08T07:11:47.218Z,102.80
2023-01-08T07:12:47.157Z,132.00
2023-01-08T07:13:47.143Z,116.00
2023-01-08T07:14:47.132Z,107.40
2023-01-08T07:15:47.194Z,167.80
2023-01-08T07:16:47.216Z,125.10
2023-01-08T07:17:47.101Z,83.60
2023-01-08T07:18:47.102Z,122.90
2023-01-08T07:19:47.087Z,78.70
2023-01-08T07:20:47.109Z,128.30
2023-01-08T07:21:47.101Z,138.70
2023-01-08T07:22:47.054Z,142.80
2023-01-08T07:23:47.079Z,124.00
2023-01-08T07:24:47.023Z,133.50
2023-01-08T07:25:47.031Z,90.20
2023-01-08T07:26:47.120Z,120.50
2023-01-08T07:27:47.003Z,136.30
2023-01-08T07:28:46.984Z,137.60
2023-01-08T07:29:46.993Z,116.40
2023-01-08T07:30:46.973Z,140.30
2023-01-08T07:31:46.965Z,155.50
2023-01-08T07:32:46.938Z,90.50
2023-01-08T07:33:46.942Z,126.50
2023-01-08T07:34:46.948Z,225.20
2023-01-08T07:35:46.912Z,256.30
2023-01-08T07:36:46.945Z,153.40
2023-01-08T07:37:46.878Z,183.30
2023-01-08T07:38:46.884Z,196.70
2023-01-08T07:39:46.840Z,265.30
2023-01-08T07:40:46.842Z,281.50
2023-01-08T07:41:46.871Z,404.80
2023-01-08T07:42:46.831Z,209.20
2023-01-08T07:43:46.805Z,306.20
2023-01-08T07:44:46.801Z,151.60
2023-01-08T07:45:46.790Z,420.80
2023-01-08T07:46:46.865Z,261.30
2023-01-08T07:47:46.760Z,357.40
2023-01-08T07:48:46.769Z,213.80
2023-01-08T07:49:46.752Z,311.30
2023-01-08T07:50:46.745Z,468.00
2023-01-08T07:51:46.765Z,298.40
2023-01-08T07:52:46.706Z,342.90
2023-01-08T07:53:46.687Z,490.80
2023-01-08T07:54:46.716Z,332.50
2023-01-08T07:55:46.689Z,340.80
2023-01-08T07:56:46.701Z,634.10
2023-01-08T07:57:46.663Z,402.80
2023-01-08T07:58:46.635Z,1999.90
2023-01-08T07:59:46.657Z,1999.90
2023-01-08T08:00:46.624Z,305.60
2023-01-08T08:01:46.925Z,374.50
2023-01-08T08:02:46.842Z,397.50
2023-01-08T08:03:46.591Z,484.10
2023-01-08T08:04:46.574Z,252.20
2023-01-08T08:05:46.565Z,1999.90
2023-01-08T08:06:46.597Z,1999.90
2023-01-08T08:07:46.546Z,1999.90
2023-01-08T08:08:46.533Z,370.30
2023-01-08T08:09:46.532Z,412.50
2023-01-08T08:10:46.512Z,223.70
2023-01-08T08:11:46.500Z,1999.90
2023-01-08T08:12:46.512Z,278.50
2023-01-08T08:13:46.477Z,557.00
2023-01-08T08:14:46.473Z,230.10
2023-01-08T08:15:46.480Z,1999.90
2023-01-08T08:16:46.428Z,516.20
2023-01-08T08:17:46.455Z,535.90
2023-01-08T08:18:46.419Z,453.40
2023-01-08T08:19:46.421Z,777.80
2023-01-08T08:20:46.389Z,767.20
2023-01-08T08:21:46.399Z,1025.20
2023-01-08T08:22:46.405Z,1999.90
2023-01-08T08:23:46.377Z,1999.90
2023-01-08T08:24:46.360Z,1999.90
2023-01-08T08:25:46.346Z,1999.90
2023-01-08T08:26:46.334Z,1999.90
2023-01-08T08:27:46.382Z,1999.90
2023-01-08T08:28:46.303Z,351.50
2023-01-08T08:29:46.311Z,300.60
2023-01-08T08:30:46.288Z,1999.90
2023-01-08T08:31:46.283Z,954.80
2023-01-08T08:32:46.306Z,1917.90
2023-01-08T08:33:46.291Z,1315.20
2023-01-08T08:34:46.230Z,1131.80
2023-01-08T08:35:46.232Z,1999.90
2023-01-08T08:36:46.226Z,1999.90
2023-01-08T08:37:46.234Z,1999.90
2023-01-08T08:38:46.193Z,1999.90
2023-01-08T08:39:46.186Z,1999.90
2023-01-08T08:40:46.159Z,1161.00
2023-01-08T08:41:46.168Z,1999.90
2023-01-08T08:42:46.203Z,1999.90
2023-01-08T08:43:46.147Z,1999.90
2023-01-08T08:44:46.128Z,1999.90
2023-01-08T08:45:46.110Z,835.60
2023-01-08T08:46:46.156Z,1999.90
2023-01-08T08:47:46.089Z,1999.90
2023-01-08T08:48:46.127Z,1999.90
2023-01-08T08:49:46.075Z,1999.90
2023-01-08T08:50:46.067Z,1999.90
2023-01-08T08:51:46.050Z,1999.90
2023-01-08T08:52:46.024Z,1999.90
2023-01-08T08:53:46.077Z,1999.90
2023-01-08T08:54:46.015Z,1999.90
2023-01-08T08:55:46.021Z,1999.90
2023-01-08T08:56:45.988Z,1999.90
2023-01-08T08:57:45.985Z,1999.90
2023-01-08T08:58:46.011Z,1999.90
2023-01-08T08:59:45.962Z,1999.90
2023-01-08T09:00:45.939Z,1999.90
2023-01-08T09:01:46.004Z,1999.90
2023-01-08T09:02:46.099Z,1999.90
2023-01-08T09:03:45.945Z,1999.90
2023-01-08T09:04:45.899Z,1999.90
2023-01-08T09:05:45.887Z,1999.90
2023-01-08T09:06:45.876Z,1999.90
2023-01-08T09:07:45.865Z,1999.90
2023-01-08T09:08:45.887Z,1999.90
2023-01-08T09:09:45.844Z,1999.90
2023-01-08T09:10:45.827Z,1999.90
2023-01-08T09:11:45.823Z,1999.90
2023-01-08T09:12:45.798Z,1999.90
2023-01-08T09:13:45.829Z,1999.90
2023-01-08T09:14:45.776Z,1999.90
2023-01-08T09:15:45.766Z,1999.90
2023-01-08T09:16:45.757Z,1999.90
2023-01-08T09:17:45.791Z,1999.90
2023-01-08T09:18:45.773Z,1999.90
2023-01-08T09:19:45.710Z,1999.90
2023-01-08T09:20:45.724Z,1999.90
2023-01-08T09:21:45.700Z,1999.90
2023-01-08T09:22:45.685Z,1999.90
2023-01-08T09:23:45.693Z,1999.90
2023-01-08T09:24:45.679Z,1999.90
2023-01-08T09:25:45.678Z,1999.90
2023-01-08T09:26:45.650Z,1999.90
2023-01-08T09:27:45.659Z,1999.90
2023-01-08T09:28:45.655Z,1999.90
2023-01-08T09:29:45.632Z,1999.90
2023-01-08T09:30:45.613Z,1999.90
2023-01-08T09:31:45.688Z,721.70
2023-01-08T09:32:45.590Z,939.10
2023-01-08T09:33:45.569Z,338.20
2023-01-08T09:34:45.596Z,105.70
2023-01-08T09:35:45.554Z,107.50
2023-01-08T09:36:45.540Z,131.90
2023-01-08T09:37:45.526Z,120.50
2023-01-08T09:38:45.519Z,84.30
2023-01-08T09:39:50.980Z,109.50
2023-01-08T09:40:46.486Z,96.00
2023-01-08T09:41:45.497Z,54.30
2023-01-08T09:42:45.462Z,49.70
2023-01-08T09:43:45.454Z,84.10
2023-01-08T09:44:45.494Z,88.90
2023-01-08T09:45:45.440Z,88.40
2023-01-08T09:46:45.428Z,471.90
2023-01-08T09:47:45.442Z,729.40
2023-01-08T09:48:45.410Z,329.70
2023-01-08T09:49:45.428Z,82.80
2023-01-08T09:50:45.366Z,255.50
2023-01-08T09:51:45.357Z,70.10
2023-01-08T09:52:45.339Z,71.60
2023-01-08T09:53:45.334Z,79.50
2023-01-08T09:54:45.370Z,97.60
2023-01-08T09:55:45.322Z,167.90
2023-01-08T09:56:45.293Z,214.10
2023-01-08T09:57:45.345Z,147.00
2023-01-08T09:58:45.292Z,757.80
2023-01-08T09:59:45.317Z,187.40
2023-01-08T10:00:45.314Z,102.60
2023-01-08T10:01:45.382Z,636.70
2023-01-08T10:02:45.255Z,173.10
2023-01-08T10:03:45.263Z,647.90
2023-01-08T10:04:45.254Z,1999.90
2023-01-08T10:05:45.204Z,1261.20
2023-01-08T10:06:45.196Z,879.70
2023-01-08T10:07:45.192Z,254.10
2023-01-08T10:09:45.208Z,332.50
2023-01-08T10:10:45.161Z,371.50
2023-01-08T10:11:45.137Z,101.80
2023-01-08T10:12:45.131Z,385.30
2023-01-08T10:13:45.122Z,940.60
2023-01-08T10:14:45.146Z,512.70
2023-01-08T10:15:45.103Z,759.70
2023-01-08T10:16:45.081Z,945.10
2023-01-08T10:17:45.087Z,1109.10
2023-01-08T10:18:45.065Z,1174.30
2023-01-08T10:19:45.097Z,708.30
2023-01-08T10:20:45.040Z,487.40
2023-01-08T10:21:45.040Z,153.40
2023-01-08T10:22:45.031Z,97.70
2023-01-08T10:23:45.004Z,105.60
2023-01-08T10:24:45.007Z,1031.90
2023-01-08T10:25:44.990Z,807.10
2023-01-08T10:26:44.969Z,202.30
2023-01-08T10:27:44.991Z,92.20
2023-01-08T10:28:44.958Z,116.70
2023-01-08T10:29:44.987Z,892.70
2023-01-08T10:30:44.913Z,177.70
2023-01-08T10:31:44.962Z,258.90
2023-01-08T10:32:44.906Z,1089.50
2023-01-08T10:33:44.893Z,668.80
2023-01-08T10:34:44.932Z,679.40
2023-01-08T10:35:44.887Z,218.80
2023-01-08T10:36:44.857Z,382.30
2023-01-08T10:37:44.864Z,534.30
2023-01-08T10:38:44.831Z,912.50
2023-01-08T10:39:44.818Z,735.70
2023-01-08T10:40:44.857Z,1004.50
2023-01-08T10:41:44.866Z,765.80
2023-01-08T10:42:44.802Z,1059.80
2023-01-08T10:43:44.793Z,1106.40
2023-01-08T10:44:44.759Z,1016.90
2023-01-08T10:45:44.833Z,984.40
2023-01-08T10:46:44.774Z,992.10
2023-01-08T10:47:44.727Z,1251.50
2023-01-08T10:48:44.758Z,1003.80
2023-01-08T10:49:44.720Z,1272.30
2023-01-08T10:50:44.741Z,920.60
2023-01-08T10:51:44.703Z,1085.10
2023-01-08T10:52:44.670Z,1204.50
2023-01-08T10:53:44.686Z,1999.90
2023-01-08T10:54:44.640Z,1999.90
2023-01-08T10:55:44.703Z,1999.90
2023-01-08T10:56:44.631Z,1999.90
2023-01-08T10:57:44.654Z,1999.90
2023-01-08T10:58:44.654Z,1999.90
2023-01-08T10:59:44.615Z,1999.90
2023-01-08T11:00:44.699Z,1999.90
2023-01-08T11:01:44.677Z,1999.90
2023-01-08T11:02:44.657Z,1999.90
2023-01-08T11:03:44.560Z,1999.90
2023-01-08T11:04:44.545Z,1999.90
2023-01-08T11:05:44.564Z,1999.90
2023-01-08T11:06:44.519Z,1999.90
2023-01-08T11:07:44.530Z,1999.90
2023-01-08T11:08:44.494Z,1999.90
2023-01-08T11:09:44.513Z,1999.90
2023-01-08T11:10:44.541Z,1999.90
2023-01-08T11:11:44.494Z,1999.90
2023-01-08T11:12:44.497Z,1999.90
2023-01-08T11:13:44.445Z,1999.90
2023-01-08T11:14:44.458Z,1999.90
2023-01-08T11:15:44.473Z,1999.90
2023-01-08T11:16:44.417Z,1999.90
2023-01-08T11:17:44.414Z,1999.90
2023-01-08T11:18:44.386Z,1999.90
2023-01-08T11:19:44.385Z,1999.90
2023-01-08T11:20:44.414Z,1999.90
2023-01-08T11:21:44.381Z,1999.90
2023-01-08T11:22:44.346Z,1999.90
2023-01-08T11:23:44.361Z,1999.90
2023-01-08T11:24:44.322Z,1999.90
2023-01-08T11:25:44.345Z,1999.90
2023-01-08T11:26:44.292Z,1999.90
2023-01-08T11:27:44.276Z,1999.90
2023-01-08T11:28:44.282Z,1999.90
2023-01-08T11:29:44.276Z,1999.90
2023-01-08T11:30:44.286Z,1999.90
2023-01-08T11:31:44.363Z,1999.90
2023-01-08T11:32:44.240Z,1999.90
2023-01-08T11:33:44.215Z,1999.90
2023-01-08T11:34:44.208Z,1999.90
2023-01-08T11:35:44.265Z,1999.90
2023-01-08T11:36:44.174Z,1999.90
2023-01-08T11:37:44.180Z,1999.90
2023-01-08T11:38:44.168Z,1999.90
2023-01-08T11:39:44.171Z,1999.90
2023-01-08T11:40:44.173Z,1999.90
2023-01-08T11:41:44.130Z,1999.90
2023-01-08T11:42:44.114Z,1999.90
2023-01-08T11:43:44.105Z,1999.90
2023-01-08T11:44:44.096Z,1999.90
2023-01-08T11:45:44.162Z,1999.90
2023-01-08T11:46:44.087Z,1999.90
2023-01-08T11:47:44.073Z,1999.90
2023-01-08T11:48:44.061Z,1999.90
2023-01-08T11:49:44.045Z,1999.90
2023-01-08T11:50:44.063Z,1999.90
2023-01-08T11:51:44.023Z,1999.90
2023-01-08T11:52:44.003Z,1999.90
2023-01-08T11:53:44.002Z,1999.90
2023-01-08T11:54:43.964Z,856.50
2023-01-08T11:55:44.010Z,1999.90
2023-01-08T11:56:43.955Z,1999.90
2023-01-08T11:57:43.976Z,1999.90
2023-01-08T11:58:43.956Z,1999.90
2023-01-08T11:59:43.920Z,1999.90
2023-01-08T12:00:43.929Z,1999.90
2023-01-08T12:01:44.061Z,1999.90
2023-01-08T12:02:43.883Z,1999.90
2023-01-08T12:03:43.891Z,1999.90
2023-01-08T12:04:43.886Z,1999.90
2023-01-08T12:05:43.872Z,1999.90
2023-01-08T12:06:43.884Z,1999.90
2023-01-08T12:07:43.849Z,1999.90
2023-01-08T12:08:43.811Z,1999.90
2023-01-08T12:09:43.822Z,1999.90
2023-01-08T12:10:43.805Z,1999.90
2023-01-08T12:11:43.823Z,1999.90
2023-01-08T12:12:43.792Z,1999.90
2023-01-08T12:13:43.785Z,1999.90
2023-01-08T12:14:43.775Z,1999.90
2023-01-08T12:15:43.731Z,1999.90
2023-01-08T12:16:43.818Z,1999.90
2023-01-08T12:17:43.733Z,1999.90
2023-01-08T12:18:43.733Z,1999.90
2023-01-08T12:19:43.717Z,1999.90
2023-01-08T12:20:43.732Z,1999.90
2023-01-08T12:21:43.698Z,1999.90
2023-01-08T12:22:43.668Z,1999.90
2023-01-08T12:23:43.644Z,1999.90
2023-01-08T12:24:43.630Z,1999.90